Aérodrome :
LOGIN :

S'inscrire | Disclaimer

   EN    FR    IT 

 










Légende :    VFR   VFR Marginal   IFR   IFR Intensif   IFR Très Intensif
Visi : 
Plafond : 
>= 8 km
>= 3000ft
5 à 8 km
1000 à 3000 ft
1500m à 5 km
500 à 1000 ft
800 à 1500m
200 à 500 ft
< 800m
< 200 ft
Symboles :   Orages  Brouillard  Fortes neiges  Fortes précipitations  Vent > 20 kt
SIGMETs :   Divers  Orages  Givrage  Turbulence  Onde Orograph.  Cendres Volcan.






- Altitude de l'aérodrome : 129 ft
- Code IATA : ZCN


ETHC - Celle

DERNIER METAR :
  • 051920Z 20001KT 3500 BR BKN260 M01/M02 Q1016 YLO

METARs EXPIRÉS :
  • 051820Z 24002KT 4500 BR BKN360 00/M01 Q1017 GRN
  • 051720Z 22007KT 5000 BR FEW005 BKN360 01/M00 Q1017 WHT
  • 051709Z 21006KT 6000 FEW005 BKN360 01/M00 Q1017 WHT
  • 051646Z 24008KT 6000 BKN005 02/00 Q1018 YLO
  • 051620Z 24007KT 7000 BKN010 02/01 Q1018 GRN FCST CANCEL

TAF AMD TAF ETHC
Valide du 05 à 15h jusqu'au 06 à 00h UTC


051607Z 0515/0524 24007KT 9999 NSW BKN010
BECMG 0515/0517 22008KT 4000 BR BKN007
TEMPO 0517/0524 22012KT 2000 BR OVC003 CANCEL 1630



MET'MAP, la Météo Aéronautique d'un coup d'oeil ! - Copyright ORBIFLY Décembre 2007 - Disclaimer

ORBIFLY MET'MAP TEAM :

Programmation & Développement : Alexandra Zaïnal
Sur une idée originale de : Baudouin d'Aumeries
Assistance à la programmation : Marc-Olivier Méhu
Soutien technique & logistique : Manuel Goepfert

Contact : metmap@orbifly.com




SOURCES & CREDITS :

   NOAA